sensor_id;sensor_type;location;lat;lon;timestamp;P1;durP1;ratioP1;P2;durP2;ratioP2
38549;SDS011;24322;52.004;5.948;2022-09-01T00:02:06;3.60;;;1.50;;
38549;SDS011;24322;52.004;5.948;2022-09-01T00:04:35;1.85;;;1.42;;
38549;SDS011;24322;52.004;5.948;2022-09-01T00:07:03;2.25;;;1.30;;
38549;SDS011;24322;52.004;5.948;2022-09-01T00:09:30;3.13;;;1.52;;
38549;SDS011;24322;52.004;5.948;2022-09-01T00:11:56;4.00;;;1.60;;
38549;SDS011;24322;52.004;5.948;2022-09-01T00:14:26;1.77;;;1.20;;
38549;SDS011;24322;52.004;5.948;2022-09-01T00:16:54;5.97;;;1.52;;
38549;SDS011;24322;52.004;5.948;2022-09-01T00:19:20;3.20;;;1.50;;
38549;SDS011;24322;52.004;5.948;2022-09-01T00:21:47;3.63;;;1.50;;
38549;SDS011;24322;52.004;5.948;2022-09-01T00:24:14;4.28;;;1.60;;
38549;SDS011;24322;52.004;5.948;2022-09-01T00:26:42;3.90;;;1.40;;
38549;SDS011;24322;52.004;5.948;2022-09-01T00:29:08;2.38;;;1.10;;
38549;SDS011;24322;52.004;5.948;2022-09-01T00:31:34;5.60;;;1.67;;
38549;SDS011;24322;52.004;5.948;2022-09-01T00:34:01;4.15;;;1.48;;
38549;SDS011;24322;52.004;5.948;2022-09-01T00:36:26;2.92;;;1.35;;
38549;SDS011;24322;52.004;5.948;2022-09-01T00:38:52;4.28;;;1.33;;
38549;SDS011;24322;52.004;5.948;2022-09-01T00:41:20;3.58;;;1.73;;
38549;SDS011;24322;52.004;5.948;2022-09-01T00:43:48;7.28;;;1.90;;
38549;SDS011;24322;52.004;5.948;2022-09-01T00:46:18;3.53;;;1.65;;
38549;SDS011;24322;52.004;5.948;2022-09-01T00:48:55;3.85;;;1.90;;
38549;SDS011;24322;52.004;5.948;2022-09-01T00:51:26;6.38;;;1.52;;
38549;SDS011;24322;52.004;5.948;2022-09-01T00:53:53;3.08;;;1.27;;
38549;SDS011;24322;52.004;5.948;2022-09-01T00:56:20;2.90;;;1.40;;
38549;SDS011;24322;52.004;5.948;2022-09-01T00:58:46;3.83;;;1.52;;
38549;SDS011;24322;52.004;5.948;2022-09-01T01:01:12;2.35;;;1.30;;
38549;SDS011;24322;52.004;5.948;2022-09-01T01:03:38;2.33;;;1.23;;
38549;SDS011;24322;52.004;5.948;2022-09-01T01:06:06;3.25;;;1.50;;
38549;SDS011;24322;52.004;5.948;2022-09-01T01:08:35;3.55;;;1.27;;
38549;SDS011;24322;52.004;5.948;2022-09-01T01:11:05;3.13;;;1.38;;
38549;SDS011;24322;52.004;5.948;2022-09-01T01:14:18;2.47;;;1.20;;
38549;SDS011;24322;52.004;5.948;2022-09-01T01:16:24;4.50;;;1.50;;
38549;SDS011;24322;52.004;5.948;2022-09-01T01:18:52;2.75;;;1.50;;
38549;SDS011;24322;52.004;5.948;2022-09-01T01:21:25;2.17;;;1.13;;
38549;SDS011;24322;52.004;5.948;2022-09-01T01:24:22;2.08;;;1.45;;
38549;SDS011;24322;52.004;5.948;2022-09-01T01:26:50;3.13;;;1.40;;
38549;SDS011;24322;52.004;5.948;2022-09-01T01:29:16;2.65;;;1.38;;
38549;SDS011;24322;52.004;5.948;2022-09-01T01:31:42;3.78;;;1.60;;
38549;SDS011;24322;52.004;5.948;2022-09-01T01:34:10;1.98;;;1.13;;
38549;SDS011;24322;52.004;5.948;2022-09-01T01:36:37;2.78;;;1.17;;
38549;SDS011;24322;52.004;5.948;2022-09-01T01:39:08;2.17;;;1.10;;
38549;SDS011;24322;52.004;5.948;2022-09-01T01:41:36;3.88;;;1.15;;
38549;SDS011;24322;52.004;5.948;2022-09-01T01:44:06;4.03;;;1.38;;
38549;SDS011;24322;52.004;5.948;2022-09-01T01:46:33;4.60;;;1.13;;
38549;SDS011;24322;52.004;5.948;2022-09-01T01:49:00;6.57;;;1.63;;
38549;SDS011;24322;52.004;5.948;2022-09-01T01:51:27;4.30;;;1.50;;
38549;SDS011;24322;52.004;5.948;2022-09-01T01:53:55;1.60;;;0.90;;
38549;SDS011;24322;52.004;5.948;2022-09-01T01:56:23;2.25;;;1.08;;
38549;SDS011;24322;52.004;5.948;2022-09-01T01:58:50;2.85;;;0.80;;
38549;SDS011;24322;52.004;5.948;2022-09-01T02:01:18;4.03;;;1.02;;
38549;SDS011;24322;52.004;5.948;2022-09-01T02:03:46;2.22;;;1.00;;
38549;SDS011;24322;52.004;5.948;2022-09-01T02:06:12;2.05;;;1.00;;
38549;SDS011;24322;52.004;5.948;2022-09-01T02:08:38;2.33;;;1.23;;
38549;SDS011;24322;52.004;5.948;2022-09-01T02:11:05;2.67;;;1.20;;
38549;SDS011;24322;52.004;5.948;2022-09-01T02:13:31;2.95;;;1.33;;
38549;SDS011;24322;52.004;5.948;2022-09-01T02:15:59;2.35;;;0.90;;
38549;SDS011;24322;52.004;5.948;2022-09-01T02:18:29;2.50;;;0.82;;
38549;SDS011;24322;52.004;5.948;2022-09-01T02:20:59;2.38;;;1.08;;
38549;SDS011;24322;52.004;5.948;2022-09-01T02:23:25;4.32;;;1.05;;
38549;SDS011;24322;52.004;5.948;2022-09-01T02:25:54;2.05;;;0.85;;
38549;SDS011;24322;52.004;5.948;2022-09-01T02:28:23;1.92;;;0.95;;
38549;SDS011;24322;52.004;5.948;2022-09-01T02:30:49;3.03;;;1.30;;
38549;SDS011;24322;52.004;5.948;2022-09-01T02:33:20;2.50;;;1.38;;
38549;SDS011;24322;52.004;5.948;2022-09-01T02:35:47;9.40;;;1.15;;
38549;SDS011;24322;52.004;5.948;2022-09-01T02:38:14;4.53;;;1.10;;
38549;SDS011;24322;52.004;5.948;2022-09-01T02:40:41;3.65;;;1.52;;
38549;SDS011;24322;52.004;5.948;2022-09-01T02:43:09;5.65;;;1.60;;
38549;SDS011;24322;52.004;5.948;2022-09-01T02:45:36;3.47;;;1.23;;
38549;SDS011;24322;52.004;5.948;2022-09-01T02:48:02;1.45;;;1.08;;
38549;SDS011;24322;52.004;5.948;2022-09-01T02:50:34;3.63;;;1.07;;
38549;SDS011;24322;52.004;5.948;2022-09-01T02:53:05;1.35;;;1.08;;
38549;SDS011;24322;52.004;5.948;2022-09-01T02:55:34;2.58;;;1.27;;
38549;SDS011;24322;52.004;5.948;2022-09-01T02:58:00;3.70;;;1.38;;
38549;SDS011;24322;52.004;5.948;2022-09-01T03:00:27;2.60;;;1.60;;
38549;SDS011;24322;52.004;5.948;2022-09-01T03:02:58;2.55;;;1.40;;
38549;SDS011;24322;52.004;5.948;2022-09-01T03:05:26;3.15;;;1.33;;
38549;SDS011;24322;52.004;5.948;2022-09-01T03:07:55;2.08;;;1.30;;
38549;SDS011;24322;52.004;5.948;2022-09-01T03:10:25;5.82;;;1.55;;
38549;SDS011;24322;52.004;5.948;2022-09-01T03:13:04;4.20;;;1.40;;
38549;SDS011;24322;52.004;5.948;2022-09-01T03:15:32;4.70;;;1.67;;
38549;SDS011;24322;52.004;5.948;2022-09-01T03:18:00;3.50;;;1.20;;
38549;SDS011;24322;52.004;5.948;2022-09-01T03:20:28;4.95;;;1.42;;
38549;SDS011;24322;52.004;5.948;2022-09-01T03:22:58;5.35;;;1.30;;
38549;SDS011;24322;52.004;5.948;2022-09-01T03:25:24;3.63;;;1.42;;
38549;SDS011;24322;52.004;5.948;2022-09-01T03:27:53;2.53;;;1.52;;
38549;SDS011;24322;52.004;5.948;2022-09-01T03:30:20;2.47;;;1.25;;
38549;SDS011;24322;52.004;5.948;2022-09-01T03:32:46;3.80;;;1.30;;
38549;SDS011;24322;52.004;5.948;2022-09-01T03:35:12;4.95;;;1.58;;
38549;SDS011;24322;52.004;5.948;2022-09-01T03:37:38;1.67;;;1.35;;
38549;SDS011;24322;52.004;5.948;2022-09-01T03:40:04;2.20;;;1.27;;
38549;SDS011;24322;52.004;5.948;2022-09-01T03:42:33;3.17;;;1.52;;
38549;SDS011;24322;52.004;5.948;2022-09-01T03:44:59;2.42;;;1.35;;
38549;SDS011;24322;52.004;5.948;2022-09-01T03:47:31;2.40;;;1.50;;
38549;SDS011;24322;52.004;5.948;2022-09-01T03:49:57;2.15;;;1.25;;
38549;SDS011;24322;52.004;5.948;2022-09-01T03:52:23;3.17;;;1.20;;
38549;SDS011;24322;52.004;5.948;2022-09-01T03:54:53;4.00;;;1.45;;
38549;SDS011;24322;52.004;5.948;2022-09-01T03:57:19;3.35;;;1.20;;
38549;SDS011;24322;52.004;5.948;2022-09-01T03:59:47;4.22;;;1.60;;
38549;SDS011;24322;52.004;5.948;2022-09-01T04:02:12;4.38;;;1.10;;
38549;SDS011;24322;52.004;5.948;2022-09-01T04:04:38;4.40;;;1.20;;
38549;SDS011;24322;52.004;5.948;2022-09-01T04:07:04;2.35;;;1.23;;
38549;SDS011;24322;52.004;5.948;2022-09-01T04:09:32;2.92;;;0.80;;
38549;SDS011;24322;52.004;5.948;2022-09-01T04:11:59;2.15;;;1.00;;
38549;SDS011;24322;52.004;5.948;2022-09-01T04:14:24;3.03;;;1.23;;
38549;SDS011;24322;52.004;5.948;2022-09-01T04:16:51;2.25;;;1.10;;
38549;SDS011;24322;52.004;5.948;2022-09-01T04:19:35;3.22;;;1.20;;
38549;SDS011;24322;52.004;5.948;2022-09-01T04:22:03;2.20;;;1.05;;
38549;SDS011;24322;52.004;5.948;2022-09-01T04:24:30;2.53;;;1.20;;
38549;SDS011;24322;52.004;5.948;2022-09-01T04:26:58;2.85;;;1.00;;
38549;SDS011;24322;52.004;5.948;2022-09-01T04:29:26;4.22;;;1.08;;
38549;SDS011;24322;52.004;5.948;2022-09-01T04:31:53;1.20;;;0.85;;
38549;SDS011;24322;52.004;5.948;2022-09-01T04:34:31;4.85;;;1.30;;
38549;SDS011;24322;52.004;5.948;2022-09-01T04:37:01;3.95;;;1.05;;
38549;SDS011;24322;52.004;5.948;2022-09-01T04:39:34;4.75;;;1.20;;
38549;SDS011;24322;52.004;5.948;2022-09-01T04:42:03;3.70;;;0.93;;
38549;SDS011;24322;52.004;5.948;2022-09-01T04:44:33;3.22;;;1.38;;
38549;SDS011;24322;52.004;5.948;2022-09-01T04:46:59;3.30;;;1.10;;
38549;SDS011;24322;52.004;5.948;2022-09-01T04:49:25;2.45;;;1.10;;
38549;SDS011;24322;52.004;5.948;2022-09-01T04:51:52;3.90;;;1.40;;
38549;SDS011;24322;52.004;5.948;2022-09-01T04:54:18;3.72;;;1.17;;
38549;SDS011;24322;52.004;5.948;2022-09-01T04:56:46;1.83;;;0.75;;
38549;SDS011;24322;52.004;5.948;2022-09-01T04:59:16;5.13;;;1.23;;
38549;SDS011;24322;52.004;5.948;2022-09-01T05:01:44;3.22;;;1.38;;
38549;SDS011;24322;52.004;5.948;2022-09-01T05:04:23;2.50;;;0.93;;
38549;SDS011;24322;52.004;5.948;2022-09-01T05:06:52;4.43;;;1.20;;
38549;SDS011;24322;52.004;5.948;2022-09-01T05:09:25;4.25;;;1.10;;
38549;SDS011;24322;52.004;5.948;2022-09-01T05:11:53;3.75;;;1.02;;
38549;SDS011;24322;52.004;5.948;2022-09-01T05:14:19;1.73;;;1.00;;
38549;SDS011;24322;52.004;5.948;2022-09-01T05:16:46;2.78;;;1.23;;
38549;SDS011;24322;52.004;5.948;2022-09-01T05:19:13;2.25;;;1.10;;
38549;SDS011;24322;52.004;5.948;2022-09-01T05:21:39;1.42;;;0.98;;
38549;SDS011;24322;52.004;5.948;2022-09-01T05:24:10;3.63;;;1.20;;
38549;SDS011;24322;52.004;5.948;2022-09-01T05:26:38;1.20;;;0.82;;
38549;SDS011;24322;52.004;5.948;2022-09-01T05:29:06;1.85;;;1.20;;
38549;SDS011;24322;52.004;5.948;2022-09-01T05:31:37;2.97;;;1.30;;
38549;SDS011;24322;52.004;5.948;2022-09-01T05:34:05;2.10;;;1.02;;
38549;SDS011;24322;52.004;5.948;2022-09-01T05:36:34;4.07;;;1.60;;
38549;SDS011;24322;52.004;5.948;2022-09-01T05:39:02;4.20;;;1.10;;
38549;SDS011;24322;52.004;5.948;2022-09-01T05:41:29;2.08;;;0.70;;
38549;SDS011;24322;52.004;5.948;2022-09-01T05:43:55;4.40;;;1.10;;
38549;SDS011;24322;52.004;5.948;2022-09-01T05:46:22;1.33;;;0.70;;
38549;SDS011;24322;52.004;5.948;2022-09-01T05:48:50;2.00;;;0.82;;
38549;SDS011;24322;52.004;5.948;2022-09-01T05:51:18;2.53;;;1.20;;
38549;SDS011;24322;52.004;5.948;2022-09-01T05:53:46;2.15;;;1.08;;
38549;SDS011;24322;52.004;5.948;2022-09-01T05:56:15;4.20;;;1.30;;
38549;SDS011;24322;52.004;5.948;2022-09-01T05:58:43;2.85;;;1.20;;
38549;SDS011;24322;52.004;5.948;2022-09-01T06:01:15;1.67;;;1.08;;
38549;SDS011;24322;52.004;5.948;2022-09-01T06:03:52;2.15;;;0.90;;
38549;SDS011;24322;52.004;5.948;2022-09-01T06:06:24;3.10;;;0.93;;
38549;SDS011;24322;52.004;5.948;2022-09-01T06:08:51;3.15;;;1.00;;
38549;SDS011;24322;52.004;5.948;2022-09-01T06:11:23;1.25;;;0.70;;
38549;SDS011;24322;52.004;5.948;2022-09-01T06:13:52;2.95;;;1.80;;
38549;SDS011;24322;52.004;5.948;2022-09-01T06:16:20;3.47;;;1.00;;
38549;SDS011;24322;52.004;5.948;2022-09-01T06:18:48;2.78;;;1.10;;
38549;SDS011;24322;52.004;5.948;2022-09-01T06:21:18;2.08;;;0.98;;
38549;SDS011;24322;52.004;5.948;2022-09-01T06:23:45;5.35;;;1.10;;
38549;SDS011;24322;52.004;5.948;2022-09-01T06:26:17;3.13;;;1.08;;
38549;SDS011;24322;52.004;5.948;2022-09-01T06:28:51;2.42;;;1.00;;
38549;SDS011;24322;52.004;5.948;2022-09-01T06:31:19;2.67;;;1.05;;
38549;SDS011;24322;52.004;5.948;2022-09-01T06:33:48;4.15;;;1.15;;
38549;SDS011;24322;52.004;5.948;2022-09-01T06:36:19;2.30;;;1.20;;
38549;SDS011;24322;52.004;5.948;2022-09-01T06:38:50;3.50;;;1.10;;
38549;SDS011;24322;52.004;5.948;2022-09-01T06:41:18;2.70;;;0.95;;
38549;SDS011;24322;52.004;5.948;2022-09-01T06:43:46;2.58;;;0.55;;
38549;SDS011;24322;52.004;5.948;2022-09-01T06:46:13;3.70;;;1.00;;
38549;SDS011;24322;52.004;5.948;2022-09-01T06:48:40;2.15;;;0.90;;
38549;SDS011;24322;52.004;5.948;2022-09-01T06:51:14;1.90;;;0.90;;
38549;SDS011;24322;52.004;5.948;2022-09-01T06:53:42;2.92;;;1.02;;
38549;SDS011;24322;52.004;5.948;2022-09-01T06:56:09;2.28;;;0.90;;
38549;SDS011;24322;52.004;5.948;2022-09-01T06:58:37;2.75;;;0.75;;
38549;SDS011;24322;52.004;5.948;2022-09-01T07:01:06;2.08;;;0.88;;
38549;SDS011;24322;52.004;5.948;2022-09-01T07:03:38;2.45;;;1.15;;
38549;SDS011;24322;52.004;5.948;2022-09-01T07:06:04;2.20;;;0.90;;
38549;SDS011;24322;52.004;5.948;2022-09-01T07:08:31;3.60;;;0.70;;
38549;SDS011;24322;52.004;5.948;2022-09-01T07:10:57;1.77;;;0.88;;
38549;SDS011;24322;52.004;5.948;2022-09-01T07:13:23;4.20;;;0.85;;
38549;SDS011;24322;52.004;5.948;2022-09-01T07:15:49;2.42;;;0.90;;
38549;SDS011;24322;52.004;5.948;2022-09-01T07:18:17;2.38;;;0.70;;
38549;SDS011;24322;52.004;5.948;2022-09-01T07:20:45;3.08;;;0.88;;
38549;SDS011;24322;52.004;5.948;2022-09-01T07:23:15;3.50;;;0.93;;
38549;SDS011;24322;52.004;5.948;2022-09-01T07:25:42;1.98;;;0.80;;
38549;SDS011;24322;52.004;5.948;2022-09-01T07:28:10;4.53;;;1.15;;
38549;SDS011;24322;52.004;5.948;2022-09-01T07:30:45;2.95;;;0.88;;
38549;SDS011;24322;52.004;5.948;2022-09-01T07:33:12;1.42;;;0.88;;
38549;SDS011;24322;52.004;5.948;2022-09-01T07:35:39;2.92;;;1.15;;
38549;SDS011;24322;52.004;5.948;2022-09-01T07:38:06;3.83;;;1.00;;
38549;SDS011;24322;52.004;5.948;2022-09-01T07:40:34;2.33;;;0.90;;
38549;SDS011;24322;52.004;5.948;2022-09-01T07:43:03;3.72;;;1.08;;
38549;SDS011;24322;52.004;5.948;2022-09-01T07:45:32;3.13;;;1.00;;
38549;SDS011;24322;52.004;5.948;2022-09-01T07:48:01;3.15;;;1.15;;
38549;SDS011;24322;52.004;5.948;2022-09-01T07:50:31;2.97;;;0.90;;
38549;SDS011;24322;52.004;5.948;2022-09-01T07:52:58;1.50;;;0.80;;
38549;SDS011;24322;52.004;5.948;2022-09-01T07:55:24;2.78;;;0.75;;
38549;SDS011;24322;52.004;5.948;2022-09-01T07:57:52;2.05;;;0.63;;
38549;SDS011;24322;52.004;5.948;2022-09-01T08:00:18;2.60;;;0.90;;
38549;SDS011;24322;52.004;5.948;2022-09-01T08:02:46;1.85;;;0.95;;
38549;SDS011;24322;52.004;5.948;2022-09-01T08:05:13;2.05;;;1.05;;
38549;SDS011;24322;52.004;5.948;2022-09-01T08:07:42;5.72;;;0.88;;
38549;SDS011;24322;52.004;5.948;2022-09-01T08:10:11;1.85;;;0.77;;
38549;SDS011;24322;52.004;5.948;2022-09-01T08:12:36;2.10;;;1.02;;
38549;SDS011;24322;52.004;5.948;2022-09-01T08:15:06;2.38;;;0.77;;
38549;SDS011;24322;52.004;5.948;2022-09-01T08:17:33;4.80;;;0.80;;
38549;SDS011;24322;52.004;5.948;2022-09-01T08:20:00;3.28;;;1.30;;
38549;SDS011;24322;52.004;5.948;2022-09-01T08:22:26;0.90;;;0.60;;
38549;SDS011;24322;52.004;5.948;2022-09-01T08:24:52;1.77;;;0.55;;
38549;SDS011;24322;52.004;5.948;2022-09-01T08:27:18;2.38;;;0.95;;
38549;SDS011;24322;52.004;5.948;2022-09-01T08:29:44;2.35;;;0.82;;
38549;SDS011;24322;52.004;5.948;2022-09-01T08:32:10;5.03;;;1.23;;
38549;SDS011;24322;52.004;5.948;2022-09-01T08:34:36;2.85;;;0.90;;
38549;SDS011;24322;52.004;5.948;2022-09-01T08:37:03;4.47;;;0.70;;
38549;SDS011;24322;52.004;5.948;2022-09-01T08:39:29;0.93;;;0.60;;
38549;SDS011;24322;52.004;5.948;2022-09-01T08:42:02;2.53;;;0.98;;
38549;SDS011;24322;52.004;5.948;2022-09-01T08:47:35;3.78;;;1.65;;
38549;SDS011;24322;52.004;5.948;2022-09-01T08:50:01;2.92;;;0.88;;
38549;SDS011;24322;52.004;5.948;2022-09-01T08:52:30;4.60;;;0.73;;
38549;SDS011;24322;52.004;5.948;2022-09-01T08:55:01;1.25;;;0.70;;
38549;SDS011;24322;52.004;5.948;2022-09-01T08:57:37;4.05;;;1.35;;
38549;SDS011;24322;52.004;5.948;2022-09-01T09:00:05;2.58;;;0.32;;
38549;SDS011;24322;52.004;5.948;2022-09-01T09:08:09;1.38;;;0.60;;
38549;SDS011;24322;52.004;5.948;2022-09-01T09:11:07;0.95;;;0.60;;
38549;SDS011;24322;52.004;5.948;2022-09-01T09:16:34;2.47;;;0.80;;
38549;SDS011;24322;52.004;5.948;2022-09-01T09:19:06;2.67;;;0.75;;
38549;SDS011;24322;52.004;5.948;2022-09-01T09:21:46;1.70;;;0.80;;
38549;SDS011;24322;52.004;5.948;2022-09-01T09:24:23;1.52;;;0.60;;
38549;SDS011;24322;52.004;5.948;2022-09-01T09:27:21;2.85;;;0.77;;
38549;SDS011;24322;52.004;5.948;2022-09-01T09:30:00;1.88;;;0.75;;
38549;SDS011;24322;52.004;5.948;2022-09-01T09:32:49;1.65;;;0.73;;
38549;SDS011;24322;52.004;5.948;2022-09-01T09:35:27;1.90;;;0.63;;
38549;SDS011;24322;52.004;5.948;2022-09-01T09:49:06;0.93;;;0.57;;
38549;SDS011;24322;52.004;5.948;2022-09-01T09:51:31;1.05;;;0.60;;
38549;SDS011;24322;52.004;5.948;2022-09-01T09:54:10;0.60;;;0.50;;
38549;SDS011;24322;52.004;5.948;2022-09-01T09:56:37;2.83;;;0.43;;
38549;SDS011;24322;52.004;5.948;2022-09-01T09:59:22;2.22;;;0.70;;
38549;SDS011;24322;52.004;5.948;2022-09-01T10:01:57;1.67;;;0.60;;
38549;SDS011;24322;52.004;5.948;2022-09-01T10:04:32;0.80;;;0.50;;
38549;SDS011;24322;52.004;5.948;2022-09-01T10:06:59;1.23;;;0.40;;
38549;SDS011;24322;52.004;5.948;2022-09-01T10:09:32;1.45;;;0.63;;
38549;SDS011;24322;52.004;5.948;2022-09-01T10:12:01;2.75;;;0.75;;
38549;SDS011;24322;52.004;5.948;2022-09-01T10:14:49;2.42;;;0.65;;
38549;SDS011;24322;52.004;5.948;2022-09-01T10:17:18;2.72;;;0.40;;
38549;SDS011;24322;52.004;5.948;2022-09-01T10:19:54;1.52;;;0.40;;
38549;SDS011;24322;52.004;5.948;2022-09-01T10:22:23;1.52;;;0.85;;
38549;SDS011;24322;52.004;5.948;2022-09-01T10:24:49;1.75;;;0.50;;
38549;SDS011;24322;52.004;5.948;2022-09-01T10:27:18;2.20;;;0.63;;
38549;SDS011;24322;52.004;5.948;2022-09-01T10:29:53;0.90;;;0.43;;
38549;SDS011;24322;52.004;5.948;2022-09-01T10:32:28;0.52;;;0.30;;
38549;SDS011;24322;52.004;5.948;2022-09-01T10:35:06;1.20;;;0.50;;
38549;SDS011;24322;52.004;5.948;2022-09-01T10:37:35;2.17;;;0.60;;
38549;SDS011;24322;52.004;5.948;2022-09-01T10:40:13;0.52;;;0.40;;
38549;SDS011;24322;52.004;5.948;2022-09-01T10:42:41;1.05;;;0.35;;
38549;SDS011;24322;52.004;5.948;2022-09-01T10:50:45;1.67;;;0.70;;
38549;SDS011;24322;52.004;5.948;2022-09-01T10:53:38;2.85;;;0.60;;
38549;SDS011;24322;52.004;5.948;2022-09-01T10:56:04;1.00;;;0.50;;
38549;SDS011;24322;52.004;5.948;2022-09-01T10:58:50;0.95;;;0.50;;
38549;SDS011;24322;52.004;5.948;2022-09-01T11:09:06;0.90;;;0.50;;
38549;SDS011;24322;52.004;5.948;2022-09-01T11:11:43;2.67;;;0.60;;
38549;SDS011;24322;52.004;5.948;2022-09-01T11:14:22;1.67;;;0.68;;
38549;SDS011;24322;52.004;5.948;2022-09-01T11:22:22;1.90;;;0.82;;
38549;SDS011;24322;52.004;5.948;2022-09-01T11:25:13;1.52;;;0.70;;
38549;SDS011;24322;52.004;5.948;2022-09-01T11:28:01;2.60;;;0.70;;
38549;SDS011;24322;52.004;5.948;2022-09-01T11:30:41;2.20;;;0.75;;
38549;SDS011;24322;52.004;5.948;2022-09-01T11:36:12;0.50;;;0.50;;
38549;SDS011;24322;52.004;5.948;2022-09-01T11:38:54;0.82;;;0.40;;
38549;SDS011;24322;52.004;5.948;2022-09-01T11:41:31;1.02;;;0.50;;
38549;SDS011;24322;52.004;5.948;2022-09-01T11:44:25;1.40;;;0.60;;
38549;SDS011;24322;52.004;5.948;2022-09-01T11:47:04;2.22;;;0.60;;
38549;SDS011;24322;52.004;5.948;2022-09-01T11:52:21;1.13;;;0.60;;
38549;SDS011;24322;52.004;5.948;2022-09-01T11:54:49;2.83;;;0.77;;
38549;SDS011;24322;52.004;5.948;2022-09-01T11:59:50;1.90;;;0.80;;
38549;SDS011;24322;52.004;5.948;2022-09-01T12:02:17;3.70;;;0.70;;
38549;SDS011;24322;52.004;5.948;2022-09-01T12:04:49;2.78;;;0.43;;
38549;SDS011;24322;52.004;5.948;2022-09-01T12:07:37;2.13;;;0.85;;
38549;SDS011;24322;52.004;5.948;2022-09-01T12:10:17;1.63;;;0.60;;
38549;SDS011;24322;52.004;5.948;2022-09-01T12:12:44;1.10;;;0.55;;
38549;SDS011;24322;52.004;5.948;2022-09-01T12:17:42;1.10;;;0.60;;
38549;SDS011;24322;52.004;5.948;2022-09-01T12:20:25;2.88;;;0.70;;
38549;SDS011;24322;52.004;5.948;2022-09-01T12:23:00;1.20;;;0.68;;
38549;SDS011;24322;52.004;5.948;2022-09-01T12:25:30;2.72;;;0.95;;
38549;SDS011;24322;52.004;5.948;2022-09-01T12:28:01;2.17;;;0.90;;
38549;SDS011;24322;52.004;5.948;2022-09-01T12:30:28;2.53;;;0.88;;
38549;SDS011;24322;52.004;5.948;2022-09-01T12:32:54;1.70;;;0.50;;
38549;SDS011;24322;52.004;5.948;2022-09-01T12:35:23;1.48;;;0.75;;
38549;SDS011;24322;52.004;5.948;2022-09-01T12:37:51;2.20;;;0.80;;
38549;SDS011;24322;52.004;5.948;2022-09-01T12:40:36;2.75;;;0.80;;
38549;SDS011;24322;52.004;5.948;2022-09-01T12:43:02;1.38;;;0.75;;
38549;SDS011;24322;52.004;5.948;2022-09-01T12:45:35;2.78;;;0.40;;
38549;SDS011;24322;52.004;5.948;2022-09-01T12:48:29;1.55;;;0.75;;
38549;SDS011;24322;52.004;5.948;2022-09-01T12:51:00;2.08;;;0.90;;
38549;SDS011;24322;52.004;5.948;2022-09-01T12:53:52;1.25;;;0.52;;
38549;SDS011;24322;52.004;5.948;2022-09-01T12:56:30;2.40;;;0.77;;
38549;SDS011;24322;52.004;5.948;2022-09-01T12:59:13;1.83;;;0.70;;
38549;SDS011;24322;52.004;5.948;2022-09-01T13:01:45;1.77;;;0.60;;
38549;SDS011;24322;52.004;5.948;2022-09-01T13:04:12;2.13;;;0.60;;
38549;SDS011;24322;52.004;5.948;2022-09-01T13:06:52;2.75;;;0.68;;
38549;SDS011;24322;52.004;5.948;2022-09-01T13:09:20;3.13;;;0.93;;
38549;SDS011;24322;52.004;5.948;2022-09-01T13:11:46;0.90;;;0.65;;
38549;SDS011;24322;52.004;5.948;2022-09-01T13:14:12;2.92;;;0.80;;
38549;SDS011;24322;52.004;5.948;2022-09-01T13:16:39;1.58;;;0.50;;
38549;SDS011;24322;52.004;5.948;2022-09-01T13:19:04;3.30;;;0.63;;
38549;SDS011;24322;52.004;5.948;2022-09-01T13:21:31;2.70;;;1.00;;
38549;SDS011;24322;52.004;5.948;2022-09-01T13:23:59;1.92;;;0.70;;
38549;SDS011;24322;52.004;5.948;2022-09-01T13:26:29;5.68;;;0.77;;
38549;SDS011;24322;52.004;5.948;2022-09-01T13:28:55;1.45;;;0.55;;
38549;SDS011;24322;52.004;5.948;2022-09-01T13:31:21;3.80;;;1.35;;
38549;SDS011;24322;52.004;5.948;2022-09-01T13:33:47;2.53;;;0.45;;
38549;SDS011;24322;52.004;5.948;2022-09-01T13:36:13;1.60;;;1.15;;
38549;SDS011;24322;52.004;5.948;2022-09-01T13:38:39;1.02;;;0.60;;
38549;SDS011;24322;52.004;5.948;2022-09-01T13:41:04;1.48;;;0.65;;
38549;SDS011;24322;52.004;5.948;2022-09-01T13:43:30;1.23;;;0.65;;
38549;SDS011;24322;52.004;5.948;2022-09-01T13:45:58;3.58;;;1.02;;
38549;SDS011;24322;52.004;5.948;2022-09-01T13:48:24;1.85;;;0.77;;
38549;SDS011;24322;52.004;5.948;2022-09-01T13:50:50;4.72;;;0.75;;
38549;SDS011;24322;52.004;5.948;2022-09-01T13:53:19;1.80;;;0.77;;
38549;SDS011;24322;52.004;5.948;2022-09-01T13:55:45;2.50;;;0.57;;
38549;SDS011;24322;52.004;5.948;2022-09-01T13:58:11;1.67;;;0.70;;
38549;SDS011;24322;52.004;5.948;2022-09-01T14:00:39;2.75;;;0.57;;
38549;SDS011;24322;52.004;5.948;2022-09-01T14:03:12;2.50;;;0.80;;
38549;SDS011;24322;52.004;5.948;2022-09-01T14:05:42;1.42;;;0.70;;
38549;SDS011;24322;52.004;5.948;2022-09-01T14:08:10;2.33;;;1.05;;
38549;SDS011;24322;52.004;5.948;2022-09-01T14:10:38;3.67;;;0.60;;
38549;SDS011;24322;52.004;5.948;2022-09-01T14:13:06;2.38;;;0.90;;
38549;SDS011;24322;52.004;5.948;2022-09-01T14:15:33;1.38;;;0.90;;
38549;SDS011;24322;52.004;5.948;2022-09-01T14:18:00;1.48;;;0.70;;
38549;SDS011;24322;52.004;5.948;2022-09-01T14:20:27;2.03;;;0.60;;
38549;SDS011;24322;52.004;5.948;2022-09-01T14:22:59;2.50;;;0.60;;
38549;SDS011;24322;52.004;5.948;2022-09-01T14:25:26;2.88;;;0.70;;
38549;SDS011;24322;52.004;5.948;2022-09-01T14:27:52;3.60;;;0.55;;
38549;SDS011;24322;52.004;5.948;2022-09-01T14:30:22;1.98;;;0.70;;
38549;SDS011;24322;52.004;5.948;2022-09-01T14:32:50;3.22;;;0.63;;
38549;SDS011;24322;52.004;5.948;2022-09-01T14:35:17;5.40;;;1.13;;
38549;SDS011;24322;52.004;5.948;2022-09-01T14:37:45;0.93;;;0.60;;
38549;SDS011;24322;52.004;5.948;2022-09-01T14:40:12;3.13;;;0.70;;
38549;SDS011;24322;52.004;5.948;2022-09-01T14:42:41;2.13;;;0.70;;
38549;SDS011;24322;52.004;5.948;2022-09-01T14:45:16;2.35;;;1.10;;
38549;SDS011;24322;52.004;5.948;2022-09-01T14:47:44;0.90;;;0.50;;
38549;SDS011;24322;52.004;5.948;2022-09-01T14:50:11;2.88;;;0.82;;
38549;SDS011;24322;52.004;5.948;2022-09-01T14:52:37;2.50;;;0.95;;
38549;SDS011;24322;52.004;5.948;2022-09-01T14:55:03;0.77;;;0.57;;
38549;SDS011;24322;52.004;5.948;2022-09-01T14:57:29;0.63;;;0.40;;
38549;SDS011;24322;52.004;5.948;2022-09-01T14:59:56;1.55;;;0.40;;
38549;SDS011;24322;52.004;5.948;2022-09-01T15:02:22;2.67;;;0.82;;
38549;SDS011;24322;52.004;5.948;2022-09-01T15:04:49;5.10;;;1.00;;
38549;SDS011;24322;52.004;5.948;2022-09-01T15:07:15;2.55;;;0.55;;
38549;SDS011;24322;52.004;5.948;2022-09-01T15:09:40;1.90;;;0.70;;
38549;SDS011;24322;52.004;5.948;2022-09-01T15:12:06;0.73;;;0.50;;
38549;SDS011;24322;52.004;5.948;2022-09-01T15:14:33;3.45;;;0.70;;
38549;SDS011;24322;52.004;5.948;2022-09-01T15:16:59;1.48;;;0.85;;
38549;SDS011;24322;52.004;5.948;2022-09-01T15:19:25;3.60;;;0.80;;
38549;SDS011;24322;52.004;5.948;2022-09-01T15:21:50;3.40;;;0.80;;
38549;SDS011;24322;52.004;5.948;2022-09-01T15:24:16;2.60;;;0.95;;
38549;SDS011;24322;52.004;5.948;2022-09-01T15:26:43;3.05;;;0.70;;
38549;SDS011;24322;52.004;5.948;2022-09-01T15:29:11;3.42;;;0.80;;
38549;SDS011;24322;52.004;5.948;2022-09-01T15:31:38;1.50;;;0.70;;
38549;SDS011;24322;52.004;5.948;2022-09-01T15:34:04;1.58;;;0.90;;
38549;SDS011;24322;52.004;5.948;2022-09-01T15:36:33;2.45;;;1.05;;
38549;SDS011;24322;52.004;5.948;2022-09-01T15:39:01;0.80;;;0.50;;
38549;SDS011;24322;52.004;5.948;2022-09-01T15:41:28;1.27;;;0.63;;
38549;SDS011;24322;52.004;5.948;2022-09-01T15:43:55;3.28;;;1.00;;
38549;SDS011;24322;52.004;5.948;2022-09-01T15:46:22;2.13;;;0.80;;
38549;SDS011;24322;52.004;5.948;2022-09-01T15:48:55;3.55;;;1.48;;
38549;SDS011;24322;52.004;5.948;2022-09-01T15:53:48;2.25;;;0.90;;
38549;SDS011;24322;52.004;5.948;2022-09-01T15:56:15;4.35;;;0.95;;
38549;SDS011;24322;52.004;5.948;2022-09-01T15:58:42;0.88;;;0.70;;